createdAt,value
2019-01-14T00:06:37.701Z,6.50
2019-01-14T00:32:45.075Z,6.50
2019-01-14T00:36:03.149Z,6.50
2019-01-14T00:44:24.947Z,6.50
2019-01-14T00:58:40.548Z,6.50
2019-01-14T01:01:23.803Z,6.40
2019-01-14T01:04:08.270Z,6.40
2019-01-14T01:06:51.697Z,6.40
2019-01-14T01:13:12.698Z,6.40
2019-01-14T01:19:06.478Z,6.40
2019-01-14T01:21:31.168Z,6.40
2019-01-14T01:42:51.615Z,6.40
2019-01-14T01:48:26.360Z,6.40
2019-01-14T01:51:14.489Z,6.40
2019-01-14T02:03:27.708Z,6.40
2019-01-14T02:07:24.128Z,6.40
2019-01-14T02:11:30.723Z,6.40
2019-01-14T02:17:33.331Z,6.30
2019-01-14T02:20:21.257Z,6.30
2019-01-14T02:42:56.974Z,6.40
2019-01-14T02:54:43.419Z,6.30
2019-01-14T02:57:26.521Z,6.20
2019-01-14T03:00:10.469Z,6.20
2019-01-14T03:02:57.406Z,6.30
2019-01-14T03:11:50.578Z,6.30
2019-01-14T03:14:35.646Z,6.30
2019-01-14T03:20:20.817Z,6.20
2019-01-14T03:25:58.366Z,6.20
2019-01-14T03:31:41.211Z,6.20
2019-01-14T03:39:28.122Z,6.20
2019-01-14T03:50:15.435Z,6.10
2019-01-14T03:53:09.488Z,6.10
2019-01-14T03:56:02.686Z,6.10
2019-01-14T04:06:05.443Z,6.10
2019-01-14T04:06:46.040Z,6.10
2019-01-14T04:09:48.983Z,6.10
2019-01-14T04:19:22.195Z,6.00
2019-01-14T04:28:21.967Z,6.00
2019-01-14T04:30:16.628Z,5.90
2019-01-14T04:33:18.167Z,5.90
2019-01-14T05:30:12.093Z,4.60
2019-01-14T05:32:51.026Z,4.50
2019-01-14T05:35:32.523Z,4.40
2019-01-14T05:38:19.811Z,4.40
2019-01-14T05:43:51.683Z,4.30
2019-01-14T06:02:55.842Z,3.80
2019-01-14T06:11:19.604Z,3.60
2019-01-14T06:13:59.660Z,3.50
2019-01-14T06:23:14.629Z,3.30
2019-01-14T06:28:39.446Z,3.20
2019-01-14T06:31:03.648Z,3.20
2019-01-14T06:48:31.142Z,3.10
2019-01-14T06:51:28.834Z,3.10
2019-01-14T06:57:23.087Z,3.20
2019-01-14T07:00:31.182Z,3.10
2019-01-14T07:06:34.614Z,3.10
2019-01-14T07:12:32.839Z,3.10
2019-01-14T07:15:17.050Z,3.10
2019-01-14T07:18:28.651Z,3.10
2019-01-14T07:27:27.386Z,2.70
2019-01-14T07:30:19.717Z,2.50
2019-01-14T07:36:05.264Z,2.40
2019-01-14T07:39:01.061Z,2.40
2019-01-14T07:42:05.913Z,2.40
2019-01-14T07:44:35.240Z,2.50
2019-01-14T07:47:08.205Z,2.50
2019-01-14T07:52:39.671Z,2.60
2019-01-14T07:55:22.721Z,2.40
2019-01-14T07:58:09.503Z,2.20
2019-01-14T08:00:56.003Z,2.20
2019-01-14T08:03:30.186Z,2.20
2019-01-14T08:06:37.187Z,2.10
2019-01-14T08:12:22.049Z,2.20
2019-01-14T08:20:38.513Z,2.20
2019-01-14T08:26:33.497Z,2.30
2019-01-14T08:29:27.834Z,2.40
2019-01-14T08:32:02.031Z,2.50
2019-01-14T08:35:12.392Z,2.50
2019-01-14T08:37:53.893Z,2.50
2019-01-14T08:40:55.454Z,2.50
2019-01-14T08:52:44.645Z,2.70
2019-01-14T08:58:58.226Z,2.80
2019-01-14T09:01:33.868Z,2.80
2019-01-14T09:04:22.130Z,2.80
2019-01-14T09:08:02.964Z,2.80
2019-01-14T09:10:15.494Z,2.80
2019-01-14T09:21:39.862Z,2.70
2019-01-14T09:24:21.855Z,2.70
2019-01-14T09:26:53.472Z,2.70
2019-01-14T09:29:42.639Z,2.70
2019-01-14T09:32:25.591Z,2.70
2019-01-14T09:38:03.554Z,2.70
2019-01-14T09:40:47.743Z,2.70
2019-01-14T09:43:36.916Z,2.70
2019-01-14T09:46:22.946Z,2.80
2019-01-14T09:49:05.183Z,2.70
2019-01-14T09:51:49.370Z,2.70
2019-01-14T09:54:33.020Z,2.80
2019-01-14T09:57:14.820Z,2.80
2019-01-14T09:59:58.934Z,2.60
2019-01-14T10:05:29.860Z,3.00
2019-01-14T10:08:15.060Z,3.00
2019-01-14T10:10:58.128Z,3.10
2019-01-14T10:13:42.366Z,3.10
2019-01-14T10:16:27.413Z,3.10
2019-01-14T10:19:10.977Z,3.20
2019-01-14T10:27:46.624Z,3.30
2019-01-14T10:33:33.341Z,3.40
2019-01-14T10:42:04.918Z,3.40
2019-01-14T10:47:52.137Z,3.30
2019-01-14T10:50:37.319Z,3.10
2019-01-14T10:53:25.861Z,3.00
2019-01-14T10:56:04.079Z,2.90
2019-01-14T11:13:58.662Z,2.50
2019-01-14T11:17:05.382Z,2.50
2019-01-14T11:25:55.205Z,2.40
2019-01-14T11:31:33.243Z,2.40
2019-01-14T11:34:04.413Z,2.40
2019-01-14T11:50:38.208Z,2.70
2019-01-14T11:51:47.530Z,2.80
2019-01-14T11:57:31.697Z,2.80
2019-01-14T12:00:59.465Z,2.70
2019-01-14T12:20:12.609Z,2.30
2019-01-14T12:23:28.284Z,2.10
2019-01-14T12:32:18.750Z,1.80
2019-01-14T12:51:04.208Z,1.70
2019-01-14T12:59:01.103Z,2.30
2019-01-14T13:15:46.175Z,2.50
2019-01-14T14:43:24.000Z,1.80
2019-01-14T14:45:36.587Z,1.80
2019-01-14T17:01:55.327Z,0.70
2019-01-14T17:04:26.839Z,0.70
2019-01-14T17:07:36.402Z,0.70
2019-01-14T17:10:08.825Z,0.80
2019-01-14T17:12:38.821Z,0.70
2019-01-14T17:15:09.053Z,0.70
2019-01-14T17:17:39.585Z,0.70
2019-01-14T17:20:16.456Z,0.70
2019-01-14T17:22:46.834Z,0.70
2019-01-14T17:25:17.159Z,0.70
2019-01-14T17:27:47.643Z,0.70
2019-01-14T17:30:17.949Z,0.70
2019-01-14T17:32:47.776Z,0.70
2019-01-14T17:35:17.675Z,0.70
2019-01-14T17:37:47.488Z,0.70
2019-01-14T17:40:18.783Z,0.70
2019-01-14T17:42:48.561Z,0.60
2019-01-14T17:45:18.370Z,0.70
2019-01-14T17:47:48.213Z,0.70
2019-01-14T17:50:20.334Z,0.70
2019-01-14T17:52:50.147Z,0.70
2019-01-14T17:55:24.154Z,0.60
2019-01-14T17:57:54.111Z,0.70
2019-01-14T18:00:28.118Z,0.70
2019-01-14T18:02:57.842Z,0.70
2019-01-14T18:05:29.934Z,0.70
2019-01-14T18:07:59.627Z,0.80
2019-01-14T18:10:29.708Z,0.80
2019-01-14T18:12:59.494Z,0.80
2019-01-14T18:15:29.363Z,0.80
2019-01-14T18:17:59.087Z,0.80
2019-01-14T18:20:28.933Z,0.80
2019-01-14T18:22:58.726Z,0.80
2019-01-14T18:25:28.496Z,0.80
2019-01-14T18:27:58.141Z,0.90
2019-01-14T18:30:29.662Z,0.90
2019-01-14T18:32:59.359Z,1.00
2019-01-14T18:35:29.113Z,1.00
2019-01-14T18:38:01.588Z,1.10
2019-01-14T18:40:34.006Z,1.10
2019-01-14T18:43:02.750Z,1.10
2019-01-14T18:45:32.527Z,1.10
2019-01-14T18:48:02.358Z,1.20
2019-01-14T18:50:32.152Z,1.20
2019-01-14T18:53:01.947Z,1.20
2019-01-14T18:55:31.881Z,1.20
2019-01-14T18:58:01.717Z,1.30
2019-01-14T19:00:31.496Z,1.30
2019-01-14T19:03:01.272Z,1.30
2019-01-14T19:05:31.065Z,1.30
2019-01-14T19:08:00.926Z,1.30
2019-01-14T19:10:30.666Z,1.30
2019-01-14T19:13:00.452Z,1.40
2019-01-14T19:15:30.174Z,1.40
2019-01-14T19:17:59.971Z,1.50
2019-01-14T19:20:30.157Z,1.50
2019-01-14T19:22:59.946Z,1.40
2019-01-14T19:25:29.871Z,1.50
2019-01-14T19:28:00.161Z,1.50
2019-01-14T19:30:30.397Z,1.50
2019-01-14T19:33:00.519Z,1.50
2019-01-14T19:35:30.597Z,1.50
2019-01-14T19:38:00.342Z,1.60
2019-01-14T19:40:30.153Z,1.60
2019-01-14T19:42:59.992Z,1.60
2019-01-14T19:45:29.963Z,1.60
2019-01-14T19:47:59.694Z,1.60
2019-01-14T19:50:29.367Z,1.60
2019-01-14T19:52:59.315Z,1.60
2019-01-14T19:55:28.965Z,1.60
2019-01-14T19:57:58.765Z,1.60
2019-01-14T20:00:30.212Z,1.60
2019-01-14T20:03:01.920Z,1.60
2019-01-14T20:05:31.754Z,1.50
2019-01-14T20:08:01.774Z,1.40
2019-01-14T20:10:31.606Z,1.40
2019-01-14T20:13:01.402Z,1.40
2019-01-14T20:15:31.226Z,1.40
2019-01-14T20:18:01.212Z,1.40
2019-01-14T20:20:31.068Z,1.40
2019-01-14T20:23:01.100Z,1.40
2019-01-14T20:25:32.105Z,1.40
2019-01-14T20:28:03.425Z,1.40
2019-01-14T20:30:33.333Z,1.50
2019-01-14T20:33:03.104Z,1.50
2019-01-14T20:35:34.599Z,1.50
2019-01-14T20:38:04.532Z,1.50
2019-01-14T20:40:34.445Z,1.50
2019-01-14T20:43:04.279Z,1.50
2019-01-14T20:45:33.989Z,1.50
2019-01-14T20:48:03.921Z,1.50
2019-01-14T20:50:33.678Z,1.50
2019-01-14T20:53:03.525Z,1.50
2019-01-14T20:55:33.273Z,1.50
2019-01-14T20:58:03.115Z,1.50
2019-01-14T21:00:34.395Z,1.50
2019-01-14T21:03:04.328Z,1.50
2019-01-14T21:05:34.245Z,1.50
2019-01-14T21:08:04.002Z,1.50
2019-01-14T21:10:33.954Z,1.50
2019-01-14T21:13:05.407Z,1.50
2019-01-14T21:15:35.197Z,1.50
2019-01-14T21:18:06.028Z,1.50
2019-01-14T21:20:35.885Z,1.60
2019-01-14T21:23:05.633Z,1.50
2019-01-14T21:25:35.486Z,1.50
2019-01-14T21:28:05.462Z,1.50
2019-01-14T21:30:35.340Z,1.50
2019-01-14T21:33:05.069Z,1.60
2019-01-14T21:35:36.876Z,1.60
2019-01-14T21:38:06.533Z,1.60
2019-01-14T21:40:36.358Z,1.60
2019-01-14T21:43:06.238Z,1.60
2019-01-14T21:45:36.046Z,1.60
2019-01-14T21:48:06.061Z,1.70
2019-01-14T21:50:35.820Z,1.70
2019-01-14T21:53:05.751Z,1.60
2019-01-14T21:55:35.747Z,1.70
2019-01-14T21:58:05.800Z,1.60
2019-01-14T22:00:35.619Z,1.60
2019-01-14T22:03:05.608Z,1.60
2019-01-14T22:05:35.415Z,1.60
2019-01-14T22:08:05.235Z,1.60
2019-01-14T22:10:36.052Z,1.60
2019-01-14T22:13:06.139Z,1.60
2019-01-14T22:15:35.897Z,1.60
2019-01-14T22:18:05.785Z,1.60
2019-01-14T22:20:36.579Z,1.70
2019-01-14T22:23:06.459Z,1.70
2019-01-14T22:25:36.283Z,1.80
2019-01-14T22:28:06.395Z,1.80
2019-01-14T22:30:36.548Z,1.80
2019-01-14T22:33:06.489Z,1.80
2019-01-14T22:35:36.273Z,1.80
2019-01-14T22:38:06.012Z,1.80
2019-01-14T22:40:35.954Z,1.90
2019-01-14T22:43:05.806Z,1.90
2019-01-14T22:45:35.700Z,1.90
2019-01-14T22:48:05.470Z,1.80
2019-01-14T22:50:35.319Z,1.90
2019-01-14T22:53:05.070Z,1.80
2019-01-14T22:55:36.347Z,1.80
2019-01-14T22:58:06.175Z,1.80
2019-01-14T23:01:13.930Z,1.80
2019-01-14T23:03:47.168Z,1.70
2019-01-14T23:06:17.205Z,1.60
2019-01-14T23:08:47.649Z,1.50
2019-01-14T23:11:17.403Z,1.50
2019-01-14T23:13:47.254Z,1.50
2019-01-14T23:16:17.106Z,1.40
2019-01-14T23:18:46.834Z,1.40
2019-01-14T23:21:16.654Z,1.30
2019-01-14T23:23:46.458Z,1.30
2019-01-14T23:26:16.306Z,1.30
2019-01-14T23:28:46.103Z,1.30
2019-01-14T23:31:15.912Z,1.30
2019-01-14T23:33:46.656Z,1.30
2019-01-14T23:36:16.669Z,1.30
2019-01-14T23:38:47.086Z,1.30
2019-01-14T23:41:16.760Z,1.30
2019-01-14T23:43:46.683Z,1.30
2019-01-14T23:46:16.852Z,1.20
2019-01-14T23:48:46.927Z,1.20
2019-01-14T23:51:16.676Z,1.20
2019-01-14T23:53:46.566Z,1.20
2019-01-14T23:56:16.343Z,1.10
2019-01-14T23:58:46.112Z,1.10
